| time (UTC) | temp C | wind direction | speed KPH | gust KPH | rain 1hr cm | rain 24hr cm | rain mn cm | humidity % | barometer mb |
| 20260906121426 | 21 | 282 | 0.0 | 0.0 | 0.00 | 0.46 | 0.46 | 98 | 1050.4 |
| 20260906120923 | 21 | 282 | 0.0 | 0.0 | 0.00 | 0.46 | 0.46 | 98 | 1050.0 |
| 20260906120418 | 21 | 282 | 0.0 | 0.0 | 0.00 | 0.46 | 0.46 | 98 | 1050.1 |
| 20260906115914 | 21 | 282 | 0.0 | 3.2 | 0.30 | 0.46 | 0.46 | 98 | 1050.1 |
| 20260906115409 | 21 | 285 | 4.8 | 6.4 | 2.64 | 0.43 | 0.43 | 98 | 1050.0 |
| 20260906114908 | 21 | 8 | 3.2 | 6.4 | 2.29 | 0.38 | 0.38 | 98 | 1049.5 |
| 20260906114404 | 21 | 101 | 4.8 | 6.4 | 0.00 | 0.00 | 0.00 | 98 | 1049.8 |
| 20260906113859 | 21 | 294 | 0.0 | 0.0 | 0.00 | 0.00 | 0.00 | 98 | 1049.7 |
| 20260906113358 | 21 | 289 | 6.4 | 11.3 | 0.00 | 0.00 | 0.00 | 98 | 1049.8 |
| 20260906112854 | 20 | 296 | 12.9 | 14.5 | 0.00 | 0.00 | 0.00 | 98 | 1049.8 |
| 20260906112350 | 20 | 265 | 3.2 | 4.8 | 0.00 | 0.00 | 0.00 | 98 | 1049.6 |
| 20260906111849 | 20 | 263 | 0.0 | 0.0 | 0.00 | 0.00 | 0.00 | 98 | 1049.3 |
| 20260906111349 | 20 | 264 | 0.0 | 0.0 | 0.00 | 0.00 | 0.00 | 98 | 1049.0 |
| 20260906110844 | 20 | 263 | 0.0 | 0.0 | 0.00 | 0.00 | 0.00 | 98 | 1049.3 |
| 20260906110340 | 20 | 263 | 0.0 | 0.0 | 0.00 | 0.00 | 0.00 | 98 | 1049.2 |
| 20260906105839 | 20 | 263 | 0.0 | 0.0 | 0.00 | 0.00 | 0.00 | 98 | 1049.2 |
| 20260906105334 | 20 | 263 | 0.0 | 0.0 | 0.00 | 0.00 | 0.00 | 98 | 1049.1 |
| 20260906104830 | 20 | 263 | 0.0 | 0.0 | 0.00 | 0.00 | 0.00 | 98 | 1049.0 |
| 20260906104329 | 20 | 263 | 0.0 | 0.0 | 0.00 | 0.00 | 0.00 | 97 | 1049.1 |
| 20260906103828 | 20 | 263 | 0.0 | 0.0 | 0.00 | 0.00 | 0.00 | 97 | 1048.8 |
| 20260906103326 | 20 | 263 | 0.0 | 0.0 | 0.00 | 0.00 | 0.00 | 97 | 1048.7 |
| 20260906102822 | 20 | 263 | 0.0 | 0.0 | 0.00 | 0.00 | 0.00 | 97 | 1048.7 |
| 20260906102321 | 20 | 263 | 0.0 | 0.0 | 0.00 | 0.00 | 0.00 | 97 | 1048.8 |
| 20260906101817 | 20 | 263 | 0.0 | 0.0 | 0.00 | 0.00 | 0.00 | 97 | 1048.7 |
| 20260906101312 | 20 | 263 | 0.0 | 0.0 | 0.00 | 0.00 | 0.00 | 97 | 1048.9 |
| 20260906100807 | 20 | 263 | 0.0 | 0.0 | 0.00 | 0.00 | 0.00 | 97 | 1048.6 |
| 20260906100306 | 20 | 263 | 0.0 | 0.0 | 0.00 | 0.00 | 0.00 | 97 | 1048.7 |
| 20260906095801 | 20 | 263 | 0.0 | 0.0 | 0.00 | 0.00 | 0.00 | 97 | 1048.5 |
| 20260906095257 | 20 | 263 | 0.0 | 0.0 | 0.00 | 0.00 | 0.00 | 97 | 1048.6 |
| 20260906094756 | 20 | 263 | 0.0 | 0.0 | 0.00 | 0.00 | 0.00 | 97 | 1048.7 |
| 20260906094251 | 20 | 263 | 0.0 | 0.0 | 0.00 | 0.00 | 0.00 | 97 | 1048.6 |
| 20260906093748 | 20 | 263 | 0.0 | 0.0 | 0.00 | 0.00 | 0.00 | 97 | 1048.6 |
| 20260906093243 | 20 | 263 | 0.0 | 0.0 | 0.00 | 0.00 | 0.00 | 97 | 1048.7 |
| 20260906092738 | 20 | 263 | 0.0 | 0.0 | 0.00 | 0.00 | 0.00 | 97 | 1048.6 |
| 20260906092237 | 20 | 263 | 0.0 | 0.0 | 0.00 | 0.00 | 0.00 | 97 | 1048.6 |
| 20260906091734 | 20 | 263 | 0.0 | 0.0 | 0.00 | 0.00 | 0.00 | 97 | 1048.4 |
| 20260906091229 | 20 | 263 | 0.0 | 0.0 | 0.00 | 0.00 | 0.00 | 97 | 1048.3 |
| 20260906090726 | 20 | 263 | 0.0 | 0.0 | 0.00 | 0.00 | 0.00 | 97 | 1048.6 |
| 20260906090224 | 20 | 263 | 0.0 | 0.0 | 0.00 | 0.00 | 0.00 | 97 | 1048.6 |
| 20260906085724 | 20 | 263 | 0.0 | 0.0 | 0.00 | 0.00 | 0.00 | 97 | 1048.4 |
| 20260906085223 | 20 | 263 | 0.0 | 0.0 | 0.00 | 0.00 | 0.00 | 97 | 1048.5 |
| 20260906084718 | 20 | 263 | 0.0 | 0.0 | 0.00 | 0.00 | 0.00 | 96 | 1048.1 |
| 20260906084218 | 20 | 263 | 0.0 | 0.0 | 0.00 | 0.00 | 0.00 | 96 | 1048.1 |
| 20260906083713 | 20 | 263 | 0.0 | 0.0 | 0.00 | 0.00 | 0.00 | 96 | 1048.4 |
| 20260906083209 | 21 | 263 | 0.0 | 0.0 | 0.00 | 0.00 | 0.00 | 96 | 1048.6 |
| 20260906082704 | 20 | 263 | 0.0 | 0.0 | 0.00 | 0.00 | 0.00 | 96 | 1048.6 |
| 20260906082159 | 20 | 263 | 0.0 | 0.0 | 0.00 | 0.00 | 0.00 | 96 | 1048.4 |
| 20260906081655 | 20 | 263 | 0.0 | 0.0 | 0.00 | 0.00 | 0.00 | 96 | 1048.6 |
| 20260906081150 | 20 | 263 | 0.0 | 0.0 | 0.00 | 0.00 | 0.00 | 96 | 1048.7 |
| 20260906080646 | 20 | 263 | 0.0 | 0.0 | 0.00 | 0.00 | 0.00 | 95 | 1048.3 |
| 20260906080142 | 20 | 263 | 0.0 | 0.0 | 0.00 | 0.00 | 0.00 | 95 | 1048.3 |
| 20260906075642 | 21 | 263 | 0.0 | 0.0 | 0.00 | 0.00 | 0.00 | 95 | 1047.9 |
| 20260906075136 | 21 | 263 | 0.0 | 0.0 | 0.00 | 0.00 | 0.00 | 95 | 1048.1 |
| 20260906074632 | 21 | 263 | 0.0 | 0.0 | 0.00 | 0.00 | 0.00 | 96 | 1048.2 |
| 20260906074130 | 21 | 263 | 0.0 | 0.0 | 0.00 | 0.00 | 0.00 | 96 | 1048.2 |
| 20260906073626 | 21 | 263 | 0.0 | 0.0 | 0.00 | 0.00 | 0.00 | 96 | 1048.3 |
| 20260906073121 | 21 | 264 | 0.0 | 0.0 | 0.00 | 0.00 | 0.00 | 96 | 1048.4 |
| 20260906072616 | 20 | 263 | 0.0 | 0.0 | 0.00 | 0.00 | 0.00 | 96 | 1048.4 |
| 20260906072113 | 21 | 263 | 0.0 | 0.0 | 0.00 | 0.00 | 0.00 | 95 | 1048.7 |
| 20260906071609 | 21 | 264 | 0.0 | 0.0 | 0.00 | 0.00 | 0.00 | 95 | 1048.6 |
| 20260906071109 | 21 | 263 | 0.0 | 0.0 | 0.00 | 0.00 | 0.00 | 95 | 1048.7 |
| 20260906070606 | 21 | 263 | 0.0 | 0.0 | 0.00 | 0.00 | 0.00 | 95 | 1048.6 |
| 20260906070100 | 21 | 264 | 0.0 | 0.0 | 0.00 | 0.00 | 0.00 | 95 | 1048.9 |
| 20260906065600 | 21 | 263 | 0.0 | 0.0 | 0.00 | 0.00 | 0.00 | 95 | 1048.8 |
| 20260906065056 | 21 | 263 | 0.0 | 0.0 | 0.00 | 0.00 | 0.00 | 94 | 1048.8 |
| 20260906064551 | 21 | 263 | 0.0 | 0.0 | 0.00 | 0.00 | 0.00 | 94 | 1048.6 |
| 20260906064046 | 21 | 263 | 0.0 | 0.0 | 0.00 | 0.00 | 0.00 | 94 | 1048.8 |
| 20260906063541 | 21 | 263 | 0.0 | 0.0 | 0.00 | 0.00 | 0.00 | 93 | 1049.1 |
| 20260906063038 | 21 | 263 | 0.0 | 0.0 | 0.00 | 0.00 | 0.00 | 93 | 1048.7 |
| 20260906062532 | 21 | 263 | 0.0 | 0.0 | 0.00 | 0.00 | 0.00 | 93 | 1049.0 |
| 20260906062026 | 21 | 263 | 0.0 | 0.0 | 0.00 | 0.00 | 0.00 | 93 | 1048.8 |
| 20260906061523 | 21 | 263 | 0.0 | 0.0 | 0.00 | 0.00 | 0.00 | 93 | 1048.6 |
| 20260906061022 | 21 | 263 | 0.0 | 0.0 | 0.00 | 0.00 | 0.00 | 94 | 1048.8 |
| 20260906060519 | 21 | 263 | 0.0 | 0.0 | 0.00 | 0.00 | 0.00 | 94 | 1048.7 |
| 20260906060016 | 21 | 263 | 0.0 | 0.0 | 0.00 | 0.00 | 0.00 | 94 | 1048.9 |
| 20260906055511 | 22 | 263 | 0.0 | 0.0 | 0.00 | 0.00 | 0.00 | 93 | 1049.0 |
| 20260906055007 | 22 | 263 | 0.0 | 0.0 | 0.00 | 0.00 | 0.00 | 93 | 1049.0 |
| 20260906054506 | 22 | 263 | 0.0 | 0.0 | 0.00 | 0.00 | 0.00 | 92 | 1048.9 |
| 20260906054002 | 22 | 263 | 0.0 | 0.0 | 0.00 | 0.00 | 0.00 | 92 | 1049.0 |
| 20260906053458 | 22 | 263 | 0.0 | 0.0 | 0.00 | 0.00 | 0.00 | 92 | 1049.0 |
| 20260906052954 | 22 | 263 | 0.0 | 0.0 | 0.00 | 0.00 | 0.00 | 91 | 1049.3 |
| 20260906052450 | 22 | 263 | 0.0 | 0.0 | 0.00 | 0.00 | 0.00 | 91 | 1049.0 |
| 20260906051946 | 22 | 263 | 0.0 | 0.0 | 0.00 | 0.00 | 0.00 | 90 | 1049.3 |
| 20260906051442 | 22 | 263 | 0.0 | 0.0 | 0.00 | 0.00 | 0.00 | 89 | 1049.0 |
| 20260906050937 | 22 | 263 | 0.0 | 3.2 | 0.00 | 0.00 | 0.00 | 90 | 1049.3 |
| 20260906050437 | 22 | 268 | 6.4 | 6.4 | 0.00 | 0.00 | 0.00 | 88 | 1049.1 |
| 20260906045936 | 22 | 296 | 0.0 | 0.0 | 0.00 | 0.00 | 0.00 | 88 | 1049.0 |
| 20260906045435 | 22 | 296 | 0.0 | 0.0 | 0.00 | 0.00 | 0.00 | 88 | 1049.1 |
| 20260906044932 | 22 | 296 | 0.0 | 0.0 | 0.00 | 0.00 | 0.00 | 88 | 1049.0 |
| 20260906044432 | 22 | 296 | 0.0 | 0.0 | 0.00 | 0.00 | 0.00 | 87 | 1049.1 |
| 20260906043927 | 22 | 296 | 0.0 | 0.0 | 0.00 | 0.00 | 0.00 | 88 | 1049.0 |
| 20260906043423 | 22 | 296 | 0.0 | 0.0 | 0.00 | 0.00 | 0.00 | 87 | 1048.9 |
| 20260906042918 | 22 | 296 | 0.0 | 0.0 | 0.00 | 0.00 | 0.00 | 87 | 1049.0 |
| 20260906042417 | 22 | 296 | 0.0 | 0.0 | 0.00 | 0.00 | 0.00 | 87 | 1049.3 |
| 20260906041913 | 22 | 296 | 0.0 | 0.0 | 0.00 | 0.00 | 0.00 | 87 | 1049.0 |
| 20260906041409 | 23 | 296 | 0.0 | 0.0 | 0.00 | 0.00 | 0.00 | 87 | 1049.2 |
| 20260906040908 | 23 | 296 | 0.0 | 0.0 | 0.00 | 0.00 | 0.00 | 86 | 1049.1 |
| 20260906040403 | 23 | 296 | 0.0 | 0.0 | 0.00 | 0.00 | 0.00 | 86 | 1049.0 |
| 20260906035859 | 23 | 296 | 0.0 | 0.0 | 0.00 | 0.00 | 0.00 | 87 | 1048.7 |
| 20260906035355 | 23 | 296 | 0.0 | 0.0 | 0.00 | 0.00 | 0.00 | 86 | 1048.9 |
| 20260906034850 | 23 | 296 | 0.0 | 0.0 | 0.00 | 0.00 | 0.00 | 85 | 1048.8 |
| 20260906034350 | 23 | 296 | 0.0 | 0.0 | 0.00 | 0.00 | 0.00 | 85 | 1048.6 |
| 20260906033846 | 23 | 296 | 0.0 | 0.0 | 0.00 | 0.00 | 0.00 | 85 | 1048.7 |
| 20260906033345 | 23 | 296 | 0.0 | 0.0 | 0.00 | 0.00 | 0.00 | 85 | 1048.5 |
| 20260906032841 | 23 | 297 | 0.0 | 0.0 | 0.00 | 0.00 | 0.00 | 85 | 1048.6 |
| 20260906032337 | 23 | 295 | 0.0 | 0.0 | 0.00 | 0.00 | 0.00 | 88 | 1048.4 |
| 20260906031832 | 22 | 294 | 0.0 | 1.6 | 0.00 | 0.00 | 0.00 | 92 | 1048.6 |
| 20260906031327 | 23 | 294 | 0.0 | 0.0 | 0.00 | 0.00 | 0.00 | 89 | 1048.6 |
| 20260906030827 | 23 | 292 | 0.0 | 0.0 | 0.00 | 0.00 | 0.00 | 88 | 1048.0 |
| 20260906030322 | 23 | 292 | 0.0 | 0.0 | 0.00 | 0.00 | 0.00 | 86 | 1048.3 |
| 20260906025817 | 23 | 292 | 0.0 | 0.0 | 0.00 | 0.00 | 0.00 | 86 | 1048.1 |
| 20260906025311 | 23 | 292 | 0.0 | 0.0 | 0.00 | 0.00 | 0.00 | 86 | 1048.4 |
| 20260906024810 | 23 | 292 | 0.0 | 0.0 | 0.00 | 0.00 | 0.00 | 86 | 1048.4 |
| 20260906024309 | 23 | 292 | 0.0 | 0.0 | 0.00 | 0.00 | 0.00 | 86 | 1048.1 |
| 20260906023804 | 23 | 292 | 0.0 | 0.0 | 0.00 | 0.00 | 0.00 | 86 | 1048.4 |
| 20260906023300 | 23 | 292 | 0.0 | 0.0 | 0.00 | 0.00 | 0.00 | 87 | 1048.4 |
| 20260906022755 | 24 | 292 | 0.0 | 0.0 | 0.00 | 0.00 | 0.00 | 89 | 1048.4 |
| 20260906022251 | 24 | 292 | 0.0 | 0.0 | 0.00 | 0.00 | 0.00 | 88 | 1048.4 |
| 20260906021747 | 25 | 292 | 0.0 | 0.0 | 0.00 | 0.00 | 0.00 | 87 | 1048.3 |
| 20260906021245 | 25 | 292 | 0.0 | 0.0 | 0.00 | 0.00 | 0.00 | 86 | 1048.1 |
| 20260906020741 | 25 | 292 | 0.0 | 0.0 | 0.00 | 0.00 | 0.00 | 85 | 1048.1 |
| 20260906020240 | 25 | 292 | 0.0 | 0.0 | 0.00 | 0.00 | 0.00 | 86 | 1048.1 |
| 20260906015735 | 25 | 292 | 0.0 | 0.0 | 0.00 | 0.00 | 0.00 | 85 | 1048.0 |
| 20260906015233 | 25 | 292 | 0.0 | 0.0 | 0.00 | 0.00 | 0.00 | 85 | 1048.3 |
| 20260906014728 | 25 | 292 | 0.0 | 0.0 | 0.00 | 0.00 | 0.00 | 86 | 1048.2 |
| 20260906014224 | 25 | 292 | 0.0 | 0.0 | 0.00 | 0.00 | 0.00 | 88 | 1048.3 |
| 20260906013720 | 24 | 292 | 0.0 | 0.0 | 0.00 | 0.00 | 0.00 | 89 | 1048.0 |
| 20260906013220 | 24 | 292 | 0.0 | 0.0 | 0.00 | 0.00 | 0.00 | 90 | 1048.0 |
| 20260906012715 | 25 | 292 | 0.0 | 0.0 | 0.00 | 0.00 | 0.00 | 89 | 1047.8 |
| 20260906012210 | 25 | 293 | 0.0 | 0.0 | 0.00 | 0.00 | 0.00 | 88 | 1048.1 |
| 20260906011706 | 25 | 292 | 0.0 | 0.0 | 0.00 | 0.00 | 0.00 | 89 | 1047.7 |
| 20260906011205 | 25 | 292 | 0.0 | 0.0 | 0.00 | 0.00 | 0.00 | 88 | 1047.5 |
| 20260906010700 | 25 | 292 | 0.0 | 0.0 | 0.00 | 0.00 | 0.00 | 85 | 1047.4 |
| 20260906010157 | 26 | 292 | 0.0 | 0.0 | 0.00 | 0.00 | 0.00 | 84 | 1047.4 |
| 20260906005656 | 26 | 292 | 0.0 | 0.0 | 0.00 | 0.00 | 0.00 | 84 | 1047.5 |
| 20260906005156 | 26 | 292 | 0.0 | 0.0 | 0.00 | 0.00 | 0.00 | 83 | 1047.5 |
| 20260906004655 | 26 | 292 | 0.0 | 0.0 | 0.00 | 0.00 | 0.00 | 82 | 1047.5 |
| 20260906004150 | 26 | 292 | 0.0 | 0.0 | 0.00 | 0.00 | 0.00 | 82 | 1047.6 |
| 20260906003645 | 26 | 292 | 0.0 | 0.0 | 0.00 | 0.00 | 0.00 | 80 | 1047.4 |
| 20260906003141 | 26 | 292 | 0.0 | 0.0 | 0.00 | 0.00 | 0.00 | 78 | 1047.4 |
| 20260906002636 | 27 | 292 | 0.0 | 0.0 | 0.00 | 0.00 | 0.00 | 76 | 1047.4 |
| 20260906002130 | 27 | 292 | 0.0 | 0.0 | 0.00 | 0.00 | 0.00 | 75 | 1047.4 |
| 20260906001626 | 27 | 292 | 0.0 | 0.0 | 0.00 | 0.00 | 0.00 | 74 | 1047.6 |
| 20260906001126 | 27 | 292 | 0.0 | 0.0 | 0.00 | 0.00 | 0.00 | 76 | 1047.7 |
| 20260906000622 | 27 | 292 | 0.0 | 0.0 | 0.00 | 0.00 | 0.00 | 76 | 1047.7 |
| 20260906000117 | 28 | 292 | 0.0 | 0.0 | 0.00 | 0.00 | 0.00 | 75 | 1047.9 |
| 20260905235616 | 28 | 292 | 0.0 | 0.0 | 0.00 | 0.00 | 0.00 | 73 | 1047.8 |
| 20260905235111 | 28 | 293 | 0.0 | 0.0 | 0.00 | 0.00 | 0.00 | 73 | 1047.8 |
| 20260905234606 | 28 | 292 | 0.0 | 0.0 | 0.00 | 0.00 | 0.00 | 71 | 1048.0 |
| 20260905234101 | 28 | 292 | 0.0 | 0.0 | 0.00 | 0.00 | 0.00 | 70 | 1047.9 |
| 20260905233601 | 29 | 292 | 0.0 | 0.0 | 0.00 | 0.00 | 0.00 | 71 | 1048.0 |
| 20260905233056 | 30 | 293 | 0.0 | 0.0 | 0.00 | 0.00 | 0.00 | 71 | 1047.9 |
| 20260905232551 | 30 | 293 | 0.0 | 0.0 | 0.00 | 0.00 | 0.00 | 72 | 1048.1 |
| 20260905232047 | 30 | 293 | 0.0 | 0.0 | 0.00 | 0.00 | 0.00 | 68 | 1048.1 |
| 20260905231542 | 31 | 293 | 0.0 | 0.0 | 0.00 | 0.00 | 0.00 | 67 | 1048.2 |
| 20260905231038 | 31 | 293 | 0.0 | 0.0 | 0.00 | 0.00 | 0.00 | 66 | 1048.3 |
| 20260905230537 | 31 | 293 | 0.0 | 0.0 | 0.00 | 0.00 | 0.00 | 61 | 1048.2 |
| 20260905230036 | 31 | 293 | 0.0 | 0.0 | 0.00 | 0.00 | 0.00 | 58 | 1048.1 |
| 20260905225531 | 32 | 293 | 0.0 | 0.0 | 0.00 | 0.00 | 0.00 | 60 | 1047.9 |
| 20260905225026 | 32 | 293 | 0.0 | 0.0 | 0.00 | 0.00 | 0.00 | 60 | 1047.8 |
| 20260905224521 | 32 | 293 | 0.0 | 0.0 | 0.00 | 0.00 | 0.00 | 58 | 1047.9 |
| 20260905224020 | 32 | 293 | 0.0 | 0.0 | 0.00 | 0.00 | 0.00 | 58 | 1047.8 |
| 20260905223518 | 32 | 293 | 0.0 | 0.0 | 0.00 | 0.00 | 0.00 | 60 | 1048.0 |
| 20260905223014 | 33 | 293 | 0.0 | 0.0 | 0.00 | 0.00 | 0.00 | 58 | 1047.9 |
| 20260905222513 | 33 | 293 | 0.0 | 1.6 | 0.00 | 0.00 | 0.00 | 55 | 1048.1 |
| 20260905222009 | 33 | 292 | 0.0 | 1.6 | 0.00 | 0.00 | 0.00 | 54 | 1048.1 |
| 20260905221505 | 34 | 295 | 3.2 | 4.8 | 0.00 | 0.00 | 0.00 | 54 | 1048.1 |
| 20260905221001 | 34 | 228 | 0.0 | 1.6 | 0.00 | 0.00 | 0.00 | 52 | 1048.2 |
| 20260905220457 | 35 | 227 | 1.6 | 1.6 | 0.00 | 0.00 | 0.00 | 55 | 1048.0 |
| 20260905215956 | 35 | 226 | 0.0 | 0.0 | 0.00 | 0.00 | 0.00 | 56 | 1047.9 |
| 20260905215451 | 34 | 226 | 0.0 | 0.0 | 0.00 | 0.00 | 0.00 | 51 | 1047.9 |
| 20260905214948 | 34 | 226 | 0.0 | 3.2 | 0.00 | 0.00 | 0.00 | 46 | 1047.8 |
| 20260905214443 | 34 | 288 | 0.0 | 1.6 | 0.00 | 0.00 | 0.00 | 52 | 1047.9 |
| 20260905213943 | 34 | 289 | 3.2 | 4.8 | 0.00 | 0.00 | 0.00 | 50 | 1047.8 |
| 20260905213439 | 34 | 294 | 0.0 | 3.2 | 0.00 | 0.00 | 0.00 | 51 | 1047.8 |
| 20260905212934 | 35 | 296 | 3.2 | 4.8 | 0.00 | 0.00 | 0.00 | 50 | 1047.7 |
| 20260905212429 | 35 | 294 | 1.6 | 3.2 | 0.00 | 0.00 | 0.00 | 48 | 1047.7 |
| 20260905211928 | 35 | 292 | 4.8 | 4.8 | 0.00 | 0.00 | 0.00 | 50 | 1047.9 |
| 20260905211424 | 35 | 289 | 0.0 | 1.6 | 0.00 | 0.00 | 0.00 | 47 | 1047.6 |
| 20260905210920 | 35 | 289 | 0.0 | 1.6 | 0.00 | 0.00 | 0.00 | 52 | 1047.9 |
| 20260905210420 | 34 | 294 | 1.6 | 3.2 | 0.00 | 0.00 | 0.00 | 53 | 1047.6 |
| 20260905205920 | 34 | 302 | 0.0 | 1.6 | 0.00 | 0.00 | 0.00 | 51 | 1047.8 |
| 20260905205415 | 34 | 298 | 1.6 | 6.4 | 0.00 | 0.00 | 0.00 | 51 | 1047.9 |
| 20260905204913 | 34 | 294 | 0.0 | 0.0 | 0.00 | 0.00 | 0.00 | 47 | 1047.6 |
| 20260905204410 | 35 | 289 | 1.6 | 4.8 | 0.00 | 0.00 | 0.00 | 49 | 1048.0 |
| 20260905203909 | 35 | 265 | 0.0 | 12.9 | 0.00 | 0.00 | 0.00 | 51 | 1047.9 |
| 20260905203404 | 34 | 93 | 0.0 | 1.6 | 0.00 | 0.00 | 0.00 | 46 | 1047.9 |
| 20260905202900 | 35 | 297 | 4.8 | 9.7 | 0.00 | 0.00 | 0.00 | 46 | 1048.0 |
| 20260905202354 | 34 | 289 | 0.0 | 0.0 | 0.00 | 0.00 | 0.00 | 48 | 1048.3 |
| 20260905201851 | 34 | 289 | 1.6 | 1.6 | 0.00 | 0.00 | 0.00 | 49 | 1048.2 |
| 20260905201346 | 34 | 285 | 3.2 | 4.8 | 0.00 | 0.00 | 0.00 | 50 | 1048.2 |
| 20260905200845 | 34 | 282 | 4.8 | 11.3 | 0.00 | 0.00 | 0.00 | 46 | 1048.4 |
| 20260905200342 | 35 | 278 | 4.8 | 4.8 | 0.00 | 0.00 | 0.00 | 50 | 1048.5 |
| 20260905195840 | 35 | 289 | 0.0 | 4.8 | 0.00 | 0.00 | 0.00 | 48 | 1048.5 |
| 20260905195335 | 35 | 164 | 0.0 | 0.0 | 0.00 | 0.00 | 0.00 | 50 | 1048.5 |
| 20260905194831 | 35 | 166 | 0.0 | 1.6 | 0.00 | 0.00 | 0.00 | 49 | 1048.6 |
| 20260905194330 | 35 | 170 | 3.2 | 4.8 | 0.00 | 0.00 | 0.00 | 49 | 1048.9 |
| 20260905193829 | 35 | 149 | 1.6 | 4.8 | 0.00 | 0.00 | 0.00 | 46 | 1048.8 |
| 20260905193324 | 35 | 172 | 1.6 | 3.2 | 0.00 | 0.00 | 0.00 | 47 | 1048.9 |
| 20260905192820 | 34 | 298 | 1.6 | 1.6 | 0.00 | 0.00 | 0.00 | 48 | 1048.9 |
| 20260905192316 | 35 | 296 | 3.2 | 4.8 | 0.00 | 0.00 | 0.00 | 51 | 1049.0 |
| 20260905191815 | 35 | 262 | 0.0 | 1.6 | 0.00 | 0.00 | 0.00 | 48 | 1048.9 |
| 20260905191314 | 35 | 257 | 0.0 | 4.8 | 0.00 | 0.00 | 0.00 | 46 | 1049.1 |
| 20260905190813 | 34 | 240 | 1.6 | 6.4 | 0.00 | 0.00 | 0.00 | 49 | 1049.1 |
| 20260905190312 | 33 | 162 | 3.2 | 6.4 | 0.00 | 0.00 | 0.00 | 55 | 1049.0 |
| 20260905185812 | 33 | 159 | 0.0 | 4.8 | 0.00 | 0.00 | 0.00 | 46 | 1049.3 |
| 20260905185307 | 33 | 163 | 1.6 | 3.2 | 0.00 | 0.00 | 0.00 | 52 | 1049.5 |
| 20260905184806 | 33 | 196 | 4.8 | 11.3 | 0.00 | 0.00 | 0.00 | 53 | 1049.5 |
| 20260905184305 | 33 | 120 | 3.2 | 4.8 | 0.00 | 0.00 | 0.00 | 51 | 1049.5 |
| 20260905183804 | 33 | 167 | 1.6 | 3.2 | 0.00 | 0.00 | 0.00 | 47 | 1049.5 |
| 20260905183300 | 33 | 123 | 1.6 | 6.4 | 0.00 | 0.00 | 0.00 | 53 | 1049.8 |
| 20260905182800 | 33 | 146 | 6.4 | 4.8 | 0.00 | 0.00 | 0.00 | 49 | 1049.8 |
| 20260905182300 | 32 | 253 | 3.2 | 9.7 | 0.00 | 0.00 | 0.00 | 56 | 1049.8 |
| 20260905181755 | 32 | 120 | 3.2 | 6.4 | 0.00 | 0.00 | 0.00 | 55 | 1050.0 |
| 20260905181255 | 32 | 93 | 3.2 | 6.4 | 0.00 | 0.00 | 0.00 | 56 | 1050.0 |
| 20260905180754 | 32 | 167 | 1.6 | 6.4 | 0.00 | 0.00 | 0.00 | 57 | 1050.0 |
| 20260905180249 | 33 | 112 | 4.8 | 4.8 | 0.00 | 0.00 | 0.00 | 49 | 1049.9 |
| 20260905175744 | 32 | 175 | 0.0 | 3.2 | 0.00 | 0.00 | 0.00 | 51 | 1050.0 |
| 20260905175238 | 32 | 169 | 8.0 | 9.7 | 0.00 | 0.00 | 0.00 | 48 | 1050.4 |
| 20260905174733 | 33 | 157 | 4.8 | 9.7 | 0.00 | 0.00 | 0.00 | 51 | 1050.3 |
| 20260905174229 | 32 | 175 | 3.2 | 6.4 | 0.00 | 0.00 | 0.00 | 51 | 1050.2 |
| 20260905173726 | 31 | 196 | 1.6 | 6.4 | 0.00 | 0.00 | 0.00 | 59 | 1050.1 |
| 20260905173222 | 32 | 107 | 1.6 | 9.7 | 0.00 | 0.00 | 0.00 | 53 | 1050.2 |
| 20260905172721 | 31 | 118 | 3.2 | 3.2 | 0.00 | 0.00 | 0.00 | 56 | 1050.4 |
| 20260905172220 | 32 | 152 | 6.4 | 12.9 | 0.00 | 0.00 | 0.00 | 49 | 1050.3 |
| 20260905171716 | 32 | 145 | 3.2 | 4.8 | 0.00 | 0.00 | 0.00 | 56 | 1050.5 |
| 20260905171212 | 32 | 129 | 1.6 | 3.2 | 0.00 | 0.00 | 0.00 | 59 | 1050.6 |
| 20260905170709 | 31 | 127 | 3.2 | 4.8 | 0.00 | 0.00 | 0.00 | 56 | 1050.4 |
| 20260905170209 | 31 | 154 | 3.2 | 6.4 | 0.00 | 0.00 | 0.00 | 54 | 1050.7 |
| 20260905165709 | 32 | 197 | 1.6 | 3.2 | 0.00 | 0.00 | 0.00 | 58 | 1050.7 |
| 20260905165204 | 31 | 155 | 3.2 | 3.2 | 0.00 | 0.00 | 0.00 | 55 | 1050.8 |
| 20260905164659 | 31 | 160 | 1.6 | 4.8 | 0.00 | 0.00 | 0.00 | 51 | 1050.6 |
| 20260905164159 | 30 | 109 | 1.6 | 4.8 | 0.00 | 0.00 | 0.00 | 56 | 1050.7 |
| 20260905163655 | 30 | 112 | 4.8 | 11.3 | 0.00 | 0.00 | 0.00 | 55 | 1050.5 |
| 20260905163151 | 31 | 172 | 8.0 | 11.3 | 0.00 | 0.00 | 0.00 | 57 | 1050.5 |
| 20260905162647 | 30 | 102 | 1.6 | 4.8 | 0.00 | 0.00 | 0.00 | 57 | 1050.5 |
| 20260905162147 | 31 | 167 | 8.0 | 11.3 | 0.00 | 0.00 | 0.00 | 55 | 1050.6 |
| 20260905161647 | 31 | 153 | 8.0 | 9.7 | 0.00 | 0.00 | 0.00 | 58 | 1050.7 |
| 20260905161139 | 30 | 75 | 3.2 | 4.8 | 0.00 | 0.00 | 0.00 | 63 | 1050.5 |
| 20260905160639 | 30 | 150 | 9.7 | 11.3 | 0.00 | 0.00 | 0.00 | 54 | 1050.9 |
| 20260905160138 | 30 | 140 | 6.4 | 6.4 | 0.00 | 0.00 | 0.00 | 59 | 1050.9 |
| 20260905155632 | 30 | 226 | 1.6 | 6.4 | 0.00 | 0.00 | 0.00 | 62 | 1051.0 |
| 20260905155131 | 29 | 171 | 4.8 | 6.4 | 0.00 | 0.00 | 0.00 | 62 | 1050.9 |
| 20260905154631 | 29 | 160 | 4.8 | 9.7 | 0.00 | 0.00 | 0.00 | 61 | 1051.4 |
| 20260905154127 | 28 | 170 | 6.4 | 6.4 | 0.00 | 0.00 | 0.00 | 63 | 1051.1 |
| 20260905153623 | 28 | 147 | 8.0 | 9.7 | 0.00 | 0.00 | 0.00 | 62 | 1051.1 |
| 20260905153118 | 28 | 97 | 4.8 | 6.4 | 0.00 | 0.00 | 0.00 | 64 | 1051.4 |
| 20260905152613 | 28 | 104 | 4.8 | 9.7 | 0.00 | 0.00 | 0.00 | 66 | 1051.5 |
| 20260905152108 | 28 | 133 | 4.8 | 11.3 | 0.00 | 0.00 | 0.00 | 63 | 1051.4 |
| 20260905151603 | 28 | 138 | 6.4 | 14.5 | 0.00 | 0.00 | 0.00 | 66 | 1051.4 |
| 20260905151058 | 28 | 143 | 4.8 | 6.4 | 0.00 | 0.00 | 0.00 | 67 | 1051.5 |
| 20260905150553 | 27 | 139 | 1.6 | 3.2 | 0.00 | 0.00 | 0.00 | 68 | 1051.2 |
| 20260905150052 | 27 | 156 | 3.2 | 6.4 | 0.00 | 0.00 | 0.00 | 71 | 1051.3 |
| 20260905145550 | 27 | 128 | 3.2 | 11.3 | 0.00 | 0.00 | 0.00 | 68 | 1051.5 |
| 20260905145049 | 26 | 133 | 4.8 | 9.7 | 0.00 | 0.00 | 0.00 | 71 | 1051.6 |
| 20260905144544 | 26 | 139 | 6.4 | 9.7 | 0.00 | 0.00 | 0.00 | 71 | 1051.7 |
| 20260905144044 | 26 | 75 | 6.4 | 6.4 | 0.00 | 0.00 | 0.00 | 71 | 1051.6 |
| 20260905143543 | 27 | 120 | 3.2 | 12.9 | 0.00 | 0.00 | 0.00 | 69 | 1051.6 |
| 20260905143039 | 27 | 133 | 6.4 | 11.3 | 0.00 | 0.00 | 0.00 | 70 | 1051.8 |
| 20260905142537 | 26 | 104 | 0.0 | 4.8 | 0.00 | 0.00 | 0.00 | 75 | 1051.7 |
| 20260905142033 | 26 | 124 | 1.6 | 4.8 | 0.00 | 0.00 | 0.00 | 74 | 1051.7 |
| 20260905141533 | 26 | 119 | 6.4 | 6.4 | 0.00 | 0.00 | 0.00 | 73 | 1051.7 |
| 20260905141029 | 26 | 71 | 4.8 | 6.4 | 0.00 | 0.00 | 0.00 | 73 | 1051.7 |
| 20260905140530 | 25 | 69 | 3.2 | 6.4 | 0.00 | 0.00 | 0.00 | 78 | 1051.6 |
| 20260905140028 | 24 | 71 | 4.8 | 9.7 | 0.00 | 0.00 | 0.00 | 77 | 1051.6 |
| 20260905135524 | 24 | 32 | 1.6 | 6.4 | 0.00 | 0.00 | 0.00 | 82 | 1051.7 |
| 20260905135020 | 23 | 97 | 6.4 | 6.4 | 0.00 | 0.00 | 0.00 | 81 | 1051.8 |
| 20260905134520 | 23 | 92 | 1.6 | 4.8 | 0.00 | 0.00 | 0.00 | 83 | 1052.0 |
| 20260905134018 | 23 | 8 | 3.2 | 6.4 | 0.00 | 0.00 | 0.00 | 83 | 1052.0 |
| 20260905133514 | 23 | 100 | 3.2 | 16.1 | 0.00 | 0.00 | 0.00 | 84 | 1051.6 |
| 20260905133013 | 22 | 15 | 6.4 | 12.9 | 0.00 | 0.00 | 0.00 | 85 | 1051.9 |
| 20260905132508 | 22 | 3 | 6.4 | 12.9 | 0.00 | 0.00 | 0.00 | 85 | 1052.1 |
| 20260905132008 | 22 | 35 | 6.4 | 20.9 | 0.00 | 0.00 | 0.00 | 86 | 1052.3 |
| 20260905131504 | 22 | 69 | 4.8 | 11.3 | 0.00 | 0.00 | 0.00 | 87 | 1052.3 |
| 20260905130959 | 22 | 49 | 6.4 | 14.5 | 0.00 | 0.00 | 0.00 | 85 | 1052.2 |
| 20260905130458 | 23 | 30 | 6.4 | 16.1 | 0.00 | 0.00 | 0.00 | 84 | 1052.2 |
| 20260905125957 | 23 | 60 | 6.4 | 12.9 | 0.00 | 0.00 | 0.00 | 81 | 1052.4 |
| 20260905125452 | 23 | 94 | 0.0 | 12.9 | 0.00 | 0.00 | 0.00 | 82 | 1052.2 |
| 20260905124948 | 23 | 32 | 0.0 | 6.4 | 0.00 | 0.00 | 0.00 | 81 | 1052.1 |
| 20260905124445 | 23 | 271 | 6.4 | 9.7 | 0.00 | 0.00 | 0.00 | 83 | 1051.9 |
| 20260905123940 | 23 | 315 | 6.4 | 6.4 | 0.00 | 0.00 | 0.00 | 83 | 1051.7 |
| 20260905123436 | 23 | 20 | 0.0 | 1.6 | 0.00 | 0.00 | 0.00 | 82 | 1051.4 |
| 20260905122937 | 23 | 14 | 1.6 | 3.2 | 0.00 | 0.00 | 0.00 | 82 | 1051.3 |
| 20260905122436 | 23 | 36 | 1.6 | 3.2 | 0.00 | 0.00 | 0.00 | 82 | 1051.5 |
| 20260905121932 | 23 | 48 | 3.2 | 4.8 | 0.00 | 0.00 | 0.00 | 82 | 1051.5 |